sensor_id;sensor_type;location;lat;lon;timestamp;temperature;humidity
18794;DHT22;29610;49.022;12.114;2024-02-21T00:00:33;5.20;97.20
18794;DHT22;29610;49.022;12.114;2024-02-21T00:03:01;5.10;97.30
18794;DHT22;29610;49.022;12.114;2024-02-21T00:05:31;5.10;97.40
18794;DHT22;29610;49.022;12.114;2024-02-21T00:08:01;5.00;97.40
18794;DHT22;29610;49.022;12.114;2024-02-21T00:10:31;5.00;97.50
18794;DHT22;29610;49.022;12.114;2024-02-21T00:12:59;5.00;97.60
18794;DHT22;29610;49.022;12.114;2024-02-21T00:15:28;5.00;97.70
18794;DHT22;29610;49.022;12.114;2024-02-21T00:17:56;5.00;97.70
18794;DHT22;29610;49.022;12.114;2024-02-21T00:20:25;5.00;97.80
18794;DHT22;29610;49.022;12.114;2024-02-21T00:22:53;5.00;97.90
18794;DHT22;29610;49.022;12.114;2024-02-21T00:25:23;5.00;97.90
18794;DHT22;29610;49.022;12.114;2024-02-21T00:27:51;5.00;97.90
18794;DHT22;29610;49.022;12.114;2024-02-21T00:30:20;5.00;98.00
18794;DHT22;29610;49.022;12.114;2024-02-21T00:32:48;5.00;98.00
18794;DHT22;29610;49.022;12.114;2024-02-21T00:35:17;5.00;98.10
18794;DHT22;29610;49.022;12.114;2024-02-21T00:37:45;5.40;98.20
18794;DHT22;29610;49.022;12.114;2024-02-21T00:40:13;5.00;98.10
18794;DHT22;29610;49.022;12.114;2024-02-21T00:42:48;5.00;98.20
18794;DHT22;29610;49.022;12.114;2024-02-21T00:45:18;5.00;98.40
18794;DHT22;29610;49.022;12.114;2024-02-21T00:47:46;5.00;98.40
18794;DHT22;29610;49.022;12.114;2024-02-21T00:50:14;6.40;99.10
18794;DHT22;29610;49.022;12.114;2024-02-21T00:52:43;5.00;98.60
18794;DHT22;29610;49.022;12.114;2024-02-21T00:55:11;4.90;98.70
18794;DHT22;29610;49.022;12.114;2024-02-21T00:57:39;5.00;98.70
18794;DHT22;29610;49.022;12.114;2024-02-21T01:00:10;5.20;98.90
18794;DHT22;29610;49.022;12.114;2024-02-21T01:02:39;4.90;99.00
18794;DHT22;29610;49.022;12.114;2024-02-21T01:05:07;4.80;99.00
18794;DHT22;29610;49.022;12.114;2024-02-21T01:07:36;4.80;99.10
18794;DHT22;29610;49.022;12.114;2024-02-21T01:10:05;4.80;99.30
18794;DHT22;29610;49.022;12.114;2024-02-21T01:12:34;4.80;99.40
18794;DHT22;29610;49.022;12.114;2024-02-21T01:15:03;4.70;99.60
18794;DHT22;29610;49.022;12.114;2024-02-21T01:17:32;4.70;99.70
18794;DHT22;29610;49.022;12.114;2024-02-21T01:20:01;4.70;99.70
18794;DHT22;29610;49.022;12.114;2024-02-21T01:22:32;4.70;99.90
18794;DHT22;29610;49.022;12.114;2024-02-21T01:25:00;4.70;99.90
18794;DHT22;29610;49.022;12.114;2024-02-21T01:27:29;4.60;99.90
18794;DHT22;29610;49.022;12.114;2024-02-21T01:29:57;4.60;99.90
18794;DHT22;29610;49.022;12.114;2024-02-21T01:32:25;4.70;99.90
18794;DHT22;29610;49.022;12.114;2024-02-21T01:34:55;4.70;99.90
18794;DHT22;29610;49.022;12.114;2024-02-21T01:37:23;4.70;99.90
18794;DHT22;29610;49.022;12.114;2024-02-21T01:39:52;4.70;99.90
18794;DHT22;29610;49.022;12.114;2024-02-21T01:42:20;4.60;99.90
18794;DHT22;29610;49.022;12.114;2024-02-21T01:44:48;4.60;99.90
18794;DHT22;29610;49.022;12.114;2024-02-21T01:47:17;4.60;99.90
18794;DHT22;29610;49.022;12.114;2024-02-21T01:49:46;4.50;99.90
18794;DHT22;29610;49.022;12.114;2024-02-21T01:52:17;4.50;99.90
18794;DHT22;29610;49.022;12.114;2024-02-21T01:54:46;4.60;99.90
18794;DHT22;29610;49.022;12.114;2024-02-21T01:57:15;4.60;99.90
18794;DHT22;29610;49.022;12.114;2024-02-21T01:59:44;4.60;99.90
18794;DHT22;29610;49.022;12.114;2024-02-21T02:02:13;4.60;99.90
18794;DHT22;29610;49.022;12.114;2024-02-21T02:04:42;4.60;99.90
18794;DHT22;29610;49.022;12.114;2024-02-21T02:07:11;4.60;99.90
18794;DHT22;29610;49.022;12.114;2024-02-21T02:09:42;4.60;99.90
18794;DHT22;29610;49.022;12.114;2024-02-21T02:12:10;4.70;99.90
18794;DHT22;29610;49.022;12.114;2024-02-21T02:14:38;4.70;99.90
18794;DHT22;29610;49.022;12.114;2024-02-21T02:17:06;4.70;99.90
18794;DHT22;29610;49.022;12.114;2024-02-21T02:19:36;4.70;99.90
18794;DHT22;29610;49.022;12.114;2024-02-21T02:22:10;4.80;99.90
18794;DHT22;29610;49.022;12.114;2024-02-21T02:24:49;4.80;99.90
18794;DHT22;29610;49.022;12.114;2024-02-21T02:27:17;5.40;99.90
18794;DHT22;29610;49.022;12.114;2024-02-21T02:29:46;4.90;99.90
18794;DHT22;29610;49.022;12.114;2024-02-21T02:32:14;4.90;99.90
18794;DHT22;29610;49.022;12.114;2024-02-21T02:34:42;4.90;99.90
18794;DHT22;29610;49.022;12.114;2024-02-21T02:37:10;5.00;99.90
18794;DHT22;29610;49.022;12.114;2024-02-21T02:39:39;5.00;99.90
18794;DHT22;29610;49.022;12.114;2024-02-21T02:42:08;5.00;99.90
18794;DHT22;29610;49.022;12.114;2024-02-21T02:44:36;5.00;99.90
18794;DHT22;29610;49.022;12.114;2024-02-21T02:47:05;5.00;99.90
18794;DHT22;29610;49.022;12.114;2024-02-21T02:49:33;4.90;99.90
18794;DHT22;29610;49.022;12.114;2024-02-21T02:52:01;4.90;99.90
18794;DHT22;29610;49.022;12.114;2024-02-21T02:54:29;4.90;99.90
18794;DHT22;29610;49.022;12.114;2024-02-21T02:56:58;5.00;99.90
18794;DHT22;29610;49.022;12.114;2024-02-21T02:59:27;4.90;99.90
18794;DHT22;29610;49.022;12.114;2024-02-21T03:01:55;4.90;99.90
18794;DHT22;29610;49.022;12.114;2024-02-21T03:04:24;4.90;99.90
18794;DHT22;29610;49.022;12.114;2024-02-21T03:06:53;5.00;99.90
18794;DHT22;29610;49.022;12.114;2024-02-21T03:09:21;5.00;99.90
18794;DHT22;29610;49.022;12.114;2024-02-21T03:11:50;5.00;99.90
18794;DHT22;29610;49.022;12.114;2024-02-21T03:14:19;5.00;99.90
18794;DHT22;29610;49.022;12.114;2024-02-21T03:16:51;5.10;99.90
18794;DHT22;29610;49.022;12.114;2024-02-21T03:19:19;5.10;99.90
18794;DHT22;29610;49.022;12.114;2024-02-21T03:21:48;5.10;99.90
18794;DHT22;29610;49.022;12.114;2024-02-21T03:24:18;5.10;99.70
18794;DHT22;29610;49.022;12.114;2024-02-21T03:26:47;5.20;99.80
18794;DHT22;29610;49.022;12.114;2024-02-21T03:29:16;5.10;99.70
18794;DHT22;29610;49.022;12.114;2024-02-21T03:31:44;5.10;99.80
18794;DHT22;29610;49.022;12.114;2024-02-21T03:34:14;5.10;99.80
18794;DHT22;29610;49.022;12.114;2024-02-21T03:36:42;5.10;99.70
18794;DHT22;29610;49.022;12.114;2024-02-21T03:39:10;5.10;99.80
18794;DHT22;29610;49.022;12.114;2024-02-21T03:41:39;5.10;99.70
18794;DHT22;29610;49.022;12.114;2024-02-21T03:44:07;5.00;99.70
18794;DHT22;29610;49.022;12.114;2024-02-21T03:46:35;5.00;99.60
18794;DHT22;29610;49.022;12.114;2024-02-21T03:49:03;4.90;99.80
18794;DHT22;29610;49.022;12.114;2024-02-21T03:51:33;4.80;99.90
18794;DHT22;29610;49.022;12.114;2024-02-21T03:54:02;4.80;99.90
18794;DHT22;29610;49.022;12.114;2024-02-21T03:56:30;4.80;99.90
18794;DHT22;29610;49.022;12.114;2024-02-21T03:58:58;4.80;99.90
18794;DHT22;29610;49.022;12.114;2024-02-21T04:01:27;4.70;99.90
18794;DHT22;29610;49.022;12.114;2024-02-21T04:03:55;5.40;99.90
18794;DHT22;29610;49.022;12.114;2024-02-21T04:06:24;4.80;99.90
18794;DHT22;29610;49.022;12.114;2024-02-21T04:08:53;5.50;99.90
18794;DHT22;29610;49.022;12.114;2024-02-21T04:11:22;4.80;99.90
18794;DHT22;29610;49.022;12.114;2024-02-21T04:13:50;4.80;99.90
18794;DHT22;29610;49.022;12.114;2024-02-21T04:16:18;4.80;99.90
18794;DHT22;29610;49.022;12.114;2024-02-21T04:18:46;4.80;99.90
18794;DHT22;29610;49.022;12.114;2024-02-21T04:21:15;4.90;99.90
18794;DHT22;29610;49.022;12.114;2024-02-21T04:23:44;4.80;99.90
18794;DHT22;29610;49.022;12.114;2024-02-21T04:26:14;4.90;99.90
18794;DHT22;29610;49.022;12.114;2024-02-21T04:28:42;4.90;99.90
18794;DHT22;29610;49.022;12.114;2024-02-21T04:31:13;4.90;99.90
18794;DHT22;29610;49.022;12.114;2024-02-21T04:33:42;4.90;99.90
18794;DHT22;29610;49.022;12.114;2024-02-21T04:36:10;4.90;99.90
18794;DHT22;29610;49.022;12.114;2024-02-21T04:38:38;4.90;99.90
18794;DHT22;29610;49.022;12.114;2024-02-21T04:41:08;4.90;99.90
18794;DHT22;29610;49.022;12.114;2024-02-21T04:43:37;4.90;99.90
18794;DHT22;29610;49.022;12.114;2024-02-21T04:46:06;4.90;99.90
18794;DHT22;29610;49.022;12.114;2024-02-21T04:48:34;4.90;99.90
18794;DHT22;29610;49.022;12.114;2024-02-21T04:51:02;4.90;99.90
18794;DHT22;29610;49.022;12.114;2024-02-21T04:53:31;4.90;99.90
18794;DHT22;29610;49.022;12.114;2024-02-21T04:55:59;4.90;99.90
18794;DHT22;29610;49.022;12.114;2024-02-21T04:58:28;4.90;99.90
18794;DHT22;29610;49.022;12.114;2024-02-21T05:00:57;5.00;99.90
18794;DHT22;29610;49.022;12.114;2024-02-21T05:03:26;5.00;99.90
18794;DHT22;29610;49.022;12.114;2024-02-21T05:05:54;5.00;99.90
18794;DHT22;29610;49.022;12.114;2024-02-21T05:08:22;5.00;99.90
18794;DHT22;29610;49.022;12.114;2024-02-21T05:10:50;5.00;99.90
18794;DHT22;29610;49.022;12.114;2024-02-21T05:13:19;5.00;99.90
18794;DHT22;29610;49.022;12.114;2024-02-21T05:15:47;5.00;99.90
18794;DHT22;29610;49.022;12.114;2024-02-21T05:18:17;5.00;99.90
18794;DHT22;29610;49.022;12.114;2024-02-21T05:20:46;5.00;99.90
18794;DHT22;29610;49.022;12.114;2024-02-21T05:23:14;5.00;99.90
18794;DHT22;29610;49.022;12.114;2024-02-21T05:25:43;5.00;99.90
18794;DHT22;29610;49.022;12.114;2024-02-21T05:28:11;5.00;99.90
18794;DHT22;29610;49.022;12.114;2024-02-21T05:30:40;4.90;99.90
18794;DHT22;29610;49.022;12.114;2024-02-21T05:33:10;4.90;99.90
18794;DHT22;29610;49.022;12.114;2024-02-21T05:35:39;4.20;99.90
18794;DHT22;29610;49.022;12.114;2024-02-21T05:38:07;4.90;99.90
18794;DHT22;29610;49.022;12.114;2024-02-21T05:40:38;4.90;99.90
18794;DHT22;29610;49.022;12.114;2024-02-21T05:43:08;4.80;99.90
18794;DHT22;29610;49.022;12.114;2024-02-21T05:45:36;4.80;99.90
18794;DHT22;29610;49.022;12.114;2024-02-21T05:48:05;4.80;99.90
18794;DHT22;29610;49.022;12.114;2024-02-21T05:50:33;4.80;99.90
18794;DHT22;29610;49.022;12.114;2024-02-21T05:53:03;4.80;99.90
18794;DHT22;29610;49.022;12.114;2024-02-21T05:55:31;4.80;99.90
18794;DHT22;29610;49.022;12.114;2024-02-21T05:57:59;4.80;99.90
18794;DHT22;29610;49.022;12.114;2024-02-21T06:00:29;4.80;99.90
18794;DHT22;29610;49.022;12.114;2024-02-21T06:02:57;4.80;99.90
18794;DHT22;29610;49.022;12.114;2024-02-21T06:05:26;4.80;99.90
18794;DHT22;29610;49.022;12.114;2024-02-21T06:07:54;4.80;99.90
18794;DHT22;29610;49.022;12.114;2024-02-21T06:10:24;4.80;99.90
18794;DHT22;29610;49.022;12.114;2024-02-21T06:12:52;4.80;99.90
18794;DHT22;29610;49.022;12.114;2024-02-21T06:15:20;4.70;99.90
18794;DHT22;29610;49.022;12.114;2024-02-21T06:17:48;4.70;99.90
18794;DHT22;29610;49.022;12.114;2024-02-21T06:20:16;4.60;99.90
18794;DHT22;29610;49.022;12.114;2024-02-21T06:22:45;4.60;99.90
18794;DHT22;29610;49.022;12.114;2024-02-21T06:25:13;4.60;99.90
18794;DHT22;29610;49.022;12.114;2024-02-21T06:27:43;4.60;99.90
18794;DHT22;29610;49.022;12.114;2024-02-21T06:30:12;4.60;99.90
18794;DHT22;29610;49.022;12.114;2024-02-21T06:32:41;4.60;99.90
18794;DHT22;29610;49.022;12.114;2024-02-21T06:35:09;4.60;99.90
18794;DHT22;29610;49.022;12.114;2024-02-21T06:37:37;4.70;99.90
18794;DHT22;29610;49.022;12.114;2024-02-21T06:40:07;4.70;99.90
18794;DHT22;29610;49.022;12.114;2024-02-21T06:42:35;4.70;99.90
18794;DHT22;29610;49.022;12.114;2024-02-21T06:45:06;4.70;99.90
18794;DHT22;29610;49.022;12.114;2024-02-21T06:47:34;4.80;99.90
18794;DHT22;29610;49.022;12.114;2024-02-21T06:50:03;4.90;99.90
18794;DHT22;29610;49.022;12.114;2024-02-21T06:52:32;5.00;99.90
18794;DHT22;29610;49.022;12.114;2024-02-21T06:55:00;5.10;99.90
18794;DHT22;29610;49.022;12.114;2024-02-21T06:57:29;5.20;99.90
18794;DHT22;29610;49.022;12.114;2024-02-21T06:59:57;5.30;99.90
18794;DHT22;29610;49.022;12.114;2024-02-21T07:02:26;5.30;99.90
18794;DHT22;29610;49.022;12.114;2024-02-21T07:04:55;5.30;99.90
18794;DHT22;29610;49.022;12.114;2024-02-21T07:07:23;5.20;99.90
18794;DHT22;29610;49.022;12.114;2024-02-21T07:09:51;5.10;99.90
18794;DHT22;29610;49.022;12.114;2024-02-21T07:12:20;5.10;99.90
18794;DHT22;29610;49.022;12.114;2024-02-21T07:14:48;5.00;99.90
18794;DHT22;29610;49.022;12.114;2024-02-21T07:17:17;5.10;99.90
18794;DHT22;29610;49.022;12.114;2024-02-21T07:19:46;5.10;99.90
18794;DHT22;29610;49.022;12.114;2024-02-21T07:22:14;5.20;99.90
18794;DHT22;29610;49.022;12.114;2024-02-21T07:24:43;5.20;99.90
18794;DHT22;29610;49.022;12.114;2024-02-21T07:27:13;5.30;99.90
18794;DHT22;29610;49.022;12.114;2024-02-21T07:29:41;5.20;99.90
18794;DHT22;29610;49.022;12.114;2024-02-21T07:32:14;5.20;99.90
18794;DHT22;29610;49.022;12.114;2024-02-21T07:34:43;5.30;99.90
18794;DHT22;29610;49.022;12.114;2024-02-21T07:37:12;5.30;99.90
18794;DHT22;29610;49.022;12.114;2024-02-21T07:39:41;5.50;99.90
18794;DHT22;29610;49.022;12.114;2024-02-21T07:42:09;5.70;99.90
18794;DHT22;29610;49.022;12.114;2024-02-21T07:44:37;5.80;99.90
18794;DHT22;29610;49.022;12.114;2024-02-21T07:47:05;6.00;99.90
18794;DHT22;29610;49.022;12.114;2024-02-21T07:49:40;6.10;99.80
18794;DHT22;29610;49.022;12.114;2024-02-21T07:52:09;6.30;99.50
18794;DHT22;29610;49.022;12.114;2024-02-21T07:54:39;6.30;99.50
18794;DHT22;29610;49.022;12.114;2024-02-21T07:57:08;6.50;99.50
18794;DHT22;29610;49.022;12.114;2024-02-21T07:59:36;6.50;99.10
18794;DHT22;29610;49.022;12.114;2024-02-21T08:02:04;6.60;99.00
18794;DHT22;29610;49.022;12.114;2024-02-21T08:04:34;6.70;98.60
18794;DHT22;29610;49.022;12.114;2024-02-21T08:07:02;6.70;98.50
18794;DHT22;29610;49.022;12.114;2024-02-21T08:09:32;6.70;98.50
18794;DHT22;29610;49.022;12.114;2024-02-21T08:12:01;6.70;98.50
18794;DHT22;29610;49.022;12.114;2024-02-21T08:14:29;6.80;98.40
18794;DHT22;29610;49.022;12.114;2024-02-21T08:16:58;6.90;98.30
18794;DHT22;29610;49.022;12.114;2024-02-21T08:19:26;7.00;98.20
18794;DHT22;29610;49.022;12.114;2024-02-21T08:21:55;7.10;98.00
18794;DHT22;29610;49.022;12.114;2024-02-21T08:24:23;7.20;97.80
18794;DHT22;29610;49.022;12.114;2024-02-21T08:26:52;7.20;97.70
18794;DHT22;29610;49.022;12.114;2024-02-21T08:29:20;7.30;97.90
18794;DHT22;29610;49.022;12.114;2024-02-21T08:31:49;7.30;97.70
18794;DHT22;29610;49.022;12.114;2024-02-21T08:34:17;7.30;97.80
18794;DHT22;29610;49.022;12.114;2024-02-21T08:36:46;7.30;97.80
18794;DHT22;29610;49.022;12.114;2024-02-21T08:39:14;7.50;97.80
18794;DHT22;29610;49.022;12.114;2024-02-21T08:41:44;7.50;97.90
18794;DHT22;29610;49.022;12.114;2024-02-21T08:44:25;7.50;97.40
18794;DHT22;29610;49.022;12.114;2024-02-21T08:46:55;7.70;96.90
18794;DHT22;29610;49.022;12.114;2024-02-21T08:49:24;7.80;96.90
18794;DHT22;29610;49.022;12.114;2024-02-21T08:52:00;8.00;96.80
18794;DHT22;29610;49.022;12.114;2024-02-21T08:54:29;8.30;96.40
18794;DHT22;29610;49.022;12.114;2024-02-21T08:56:58;8.70;95.80
18794;DHT22;29610;49.022;12.114;2024-02-21T08:59:27;8.70;95.60
18794;DHT22;29610;49.022;12.114;2024-02-21T09:01:55;8.50;94.90
18794;DHT22;29610;49.022;12.114;2024-02-21T09:04:24;8.40;95.30
18794;DHT22;29610;49.022;12.114;2024-02-21T09:06:53;8.30;95.10
18794;DHT22;29610;49.022;12.114;2024-02-21T09:09:21;8.40;95.10
18794;DHT22;29610;49.022;12.114;2024-02-21T09:11:51;8.40;95.10
18794;DHT22;29610;49.022;12.114;2024-02-21T09:14:20;8.50;95.20
18794;DHT22;29610;49.022;12.114;2024-02-21T09:16:50;8.40;95.00
18794;DHT22;29610;49.022;12.114;2024-02-21T09:19:18;8.50;94.90
18794;DHT22;29610;49.022;12.114;2024-02-21T09:21:46;8.60;95.10
18794;DHT22;29610;49.022;12.114;2024-02-21T09:24:15;8.70;94.80
18794;DHT22;29610;49.022;12.114;2024-02-21T09:26:44;8.80;94.80
18794;DHT22;29610;49.022;12.114;2024-02-21T09:29:12;8.90;94.10
18794;DHT22;29610;49.022;12.114;2024-02-21T09:31:42;9.00;93.40
18794;DHT22;29610;49.022;12.114;2024-02-21T09:34:12;9.10;93.60
18794;DHT22;29610;49.022;12.114;2024-02-21T09:36:40;9.20;92.80
18794;DHT22;29610;49.022;12.114;2024-02-21T09:39:09;9.20;93.00
18794;DHT22;29610;49.022;12.114;2024-02-21T09:41:45;9.10;94.00
18794;DHT22;29610;49.022;12.114;2024-02-21T09:44:19;9.20;93.60
18794;DHT22;29610;49.022;12.114;2024-02-21T09:46:52;9.30;92.60
18794;DHT22;29610;49.022;12.114;2024-02-21T09:49:30;9.40;92.60
18794;DHT22;29610;49.022;12.114;2024-02-21T09:52:01;9.40;92.40
18794;DHT22;29610;49.022;12.114;2024-02-21T09:54:32;9.60;92.60
18794;DHT22;29610;49.022;12.114;2024-02-21T09:57:01;9.80;92.20
18794;DHT22;29610;49.022;12.114;2024-02-21T09:59:33;9.90;91.90
18794;DHT22;29610;49.022;12.114;2024-02-21T10:02:01;10.10;91.00
18794;DHT22;29610;49.022;12.114;2024-02-21T10:04:31;10.20;90.80
18794;DHT22;29610;49.022;12.114;2024-02-21T10:07:00;10.30;90.30
18794;DHT22;29610;49.022;12.114;2024-02-21T10:09:28;10.40;90.40
18794;DHT22;29610;49.022;12.114;2024-02-21T10:12:07;10.40;90.10
18794;DHT22;29610;49.022;12.114;2024-02-21T10:14:38;10.50;90.20
18794;DHT22;29610;49.022;12.114;2024-02-21T10:17:06;10.50;90.10
18794;DHT22;29610;49.022;12.114;2024-02-21T10:19:39;10.30;89.10
18794;DHT22;29610;49.022;12.114;2024-02-21T10:22:08;10.30;89.60
18794;DHT22;29610;49.022;12.114;2024-02-21T10:24:37;10.40;90.50
18794;DHT22;29610;49.022;12.114;2024-02-21T10:27:09;10.50;90.10
18794;DHT22;29610;49.022;12.114;2024-02-21T10:29:40;10.50;90.00
18794;DHT22;29610;49.022;12.114;2024-02-21T10:32:10;10.50;88.90
18794;DHT22;29610;49.022;12.114;2024-02-21T10:34:42;10.60;89.40
18794;DHT22;29610;49.022;12.114;2024-02-21T10:37:12;10.80;88.20
18794;DHT22;29610;49.022;12.114;2024-02-21T10:39:41;10.80;89.20
18794;DHT22;29610;49.022;12.114;2024-02-21T10:42:11;10.90;88.40
18794;DHT22;29610;49.022;12.114;2024-02-21T10:44:40;11.00;87.40
18794;DHT22;29610;49.022;12.114;2024-02-21T10:47:11;11.10;88.00
18794;DHT22;29610;49.022;12.114;2024-02-21T10:49:44;11.20;86.00
18794;DHT22;29610;49.022;12.114;2024-02-21T10:52:19;11.30;85.70
18794;DHT22;29610;49.022;12.114;2024-02-21T10:55:02;11.40;86.50
18794;DHT22;29610;49.022;12.114;2024-02-21T10:57:31;11.50;84.40
18794;DHT22;29610;49.022;12.114;2024-02-21T11:00:00;11.80;84.30
18794;DHT22;29610;49.022;12.114;2024-02-21T11:02:30;12.00;85.10
18794;DHT22;29610;49.022;12.114;2024-02-21T11:05:01;12.20;84.40
18794;DHT22;29610;49.022;12.114;2024-02-21T11:07:32;12.30;83.10
18794;DHT22;29610;49.022;12.114;2024-02-21T11:10:04;12.30;83.20
18794;DHT22;29610;49.022;12.114;2024-02-21T11:12:34;12.40;83.30
18794;DHT22;29610;49.022;12.114;2024-02-21T11:15:06;12.60;82.70
18794;DHT22;29610;49.022;12.114;2024-02-21T11:17:34;12.80;80.40
18794;DHT22;29610;49.022;12.114;2024-02-21T11:20:17;12.90;81.00
18794;DHT22;29610;49.022;12.114;2024-02-21T11:22:46;13.20;81.40
18794;DHT22;29610;49.022;12.114;2024-02-21T11:25:21;13.20;79.40
18794;DHT22;29610;49.022;12.114;2024-02-21T11:27:50;13.30;79.30
18794;DHT22;29610;49.022;12.114;2024-02-21T11:30:27;13.30;79.20
18794;DHT22;29610;49.022;12.114;2024-02-21T11:33:00;13.40;80.10
18794;DHT22;29610;49.022;12.114;2024-02-21T11:35:35;13.50;79.90
18794;DHT22;29610;49.022;12.114;2024-02-21T11:38:09;13.70;78.90
18794;DHT22;29610;49.022;12.114;2024-02-21T11:40:45;13.80;76.80
18794;DHT22;29610;49.022;12.114;2024-02-21T11:43:15;13.90;77.50
18794;DHT22;29610;49.022;12.114;2024-02-21T11:45:43;13.90;76.50
18794;DHT22;29610;49.022;12.114;2024-02-21T11:48:12;14.10;75.60
18794;DHT22;29610;49.022;12.114;2024-02-21T11:50:42;14.00;75.10
18794;DHT22;29610;49.022;12.114;2024-02-21T11:53:10;14.00;74.20
18794;DHT22;29610;49.022;12.114;2024-02-21T11:55:38;14.10;74.10
18794;DHT22;29610;49.022;12.114;2024-02-21T11:58:06;14.00;73.10
18794;DHT22;29610;49.022;12.114;2024-02-21T12:00:35;14.10;72.90
18794;DHT22;29610;49.022;12.114;2024-02-21T12:03:04;14.20;73.10
18794;DHT22;29610;49.022;12.114;2024-02-21T12:05:32;14.30;70.90
18794;DHT22;29610;49.022;12.114;2024-02-21T12:08:04;14.40;69.80
18794;DHT22;29610;49.022;12.114;2024-02-21T12:10:32;14.30;69.70
18794;DHT22;29610;49.022;12.114;2024-02-21T12:13:06;14.30;69.80
18794;DHT22;29610;49.022;12.114;2024-02-21T12:15:35;14.40;68.60
18794;DHT22;29610;49.022;12.114;2024-02-21T12:18:04;14.60;67.70
18794;DHT22;29610;49.022;12.114;2024-02-21T12:20:33;14.60;69.70
18794;DHT22;29610;49.022;12.114;2024-02-21T12:23:04;14.80;69.60
18794;DHT22;29610;49.022;12.114;2024-02-21T12:25:37;14.70;69.90
18794;DHT22;29610;49.022;12.114;2024-02-21T12:28:06;15.50;69.10
18794;DHT22;29610;49.022;12.114;2024-02-21T12:30:35;14.30;69.40
18794;DHT22;29610;49.022;12.114;2024-02-21T12:33:06;14.20;68.80
18794;DHT22;29610;49.022;12.114;2024-02-21T12:35:34;14.30;68.00
18794;DHT22;29610;49.022;12.114;2024-02-21T12:38:04;14.10;67.50
18794;DHT22;29610;49.022;12.114;2024-02-21T12:40:33;14.00;67.30
18794;DHT22;29610;49.022;12.114;2024-02-21T12:43:02;14.30;68.30
18794;DHT22;29610;49.022;12.114;2024-02-21T12:45:31;14.40;68.50
18794;DHT22;29610;49.022;12.114;2024-02-21T12:48:00;14.40;67.90
18794;DHT22;29610;49.022;12.114;2024-02-21T12:50:29;14.40;66.90
18794;DHT22;29610;49.022;12.114;2024-02-21T12:52:58;14.30;67.40
18794;DHT22;29610;49.022;12.114;2024-02-21T12:55:28;14.40;68.60
18794;DHT22;29610;49.022;12.114;2024-02-21T12:57:56;14.60;68.40
18794;DHT22;29610;49.022;12.114;2024-02-21T13:00:30;14.80;68.50
18794;DHT22;29610;49.022;12.114;2024-02-21T13:02:59;15.20;68.80
18794;DHT22;29610;49.022;12.114;2024-02-21T13:05:27;15.30;66.20
18794;DHT22;29610;49.022;12.114;2024-02-21T13:07:55;15.00;66.00
18794;DHT22;29610;49.022;12.114;2024-02-21T13:10:24;14.80;67.60
18794;DHT22;29610;49.022;12.114;2024-02-21T13:12:54;14.90;67.00
18794;DHT22;29610;49.022;12.114;2024-02-21T13:15:22;14.80;67.00
18794;DHT22;29610;49.022;12.114;2024-02-21T13:17:51;14.80;66.00
18794;DHT22;29610;49.022;12.114;2024-02-21T13:20:19;14.80;68.70
18794;DHT22;29610;49.022;12.114;2024-02-21T13:22:48;14.80;67.80
18794;DHT22;29610;49.022;12.114;2024-02-21T13:25:16;14.60;67.70
18794;DHT22;29610;49.022;12.114;2024-02-21T13:27:47;14.50;67.10
18794;DHT22;29610;49.022;12.114;2024-02-21T13:30:17;14.30;67.10
18794;DHT22;29610;49.022;12.114;2024-02-21T13:32:45;14.10;67.50
18794;DHT22;29610;49.022;12.114;2024-02-21T13:35:14;14.20;69.50
18794;DHT22;29610;49.022;12.114;2024-02-21T13:37:43;14.20;69.40
18794;DHT22;29610;49.022;12.114;2024-02-21T13:40:12;14.30;69.30
18794;DHT22;29610;49.022;12.114;2024-02-21T13:42:41;14.50;67.60
18794;DHT22;29610;49.022;12.114;2024-02-21T13:45:10;14.60;67.80
18794;DHT22;29610;49.022;12.114;2024-02-21T13:47:40;14.80;69.20
18794;DHT22;29610;49.022;12.114;2024-02-21T13:50:08;14.90;68.30
18794;DHT22;29610;49.022;12.114;2024-02-21T13:52:41;14.80;67.20
18794;DHT22;29610;49.022;12.114;2024-02-21T13:55:10;14.80;67.40
18794;DHT22;29610;49.022;12.114;2024-02-21T13:57:38;15.00;68.50
18794;DHT22;29610;49.022;12.114;2024-02-21T14:00:07;14.80;66.50
18794;DHT22;29610;49.022;12.114;2024-02-21T14:02:41;14.70;66.70
18794;DHT22;29610;49.022;12.114;2024-02-21T14:05:10;14.60;66.00
18794;DHT22;29610;49.022;12.114;2024-02-21T14:07:38;14.60;66.40
18794;DHT22;29610;49.022;12.114;2024-02-21T14:10:08;14.60;66.20
18794;DHT22;29610;49.022;12.114;2024-02-21T14:12:37;14.60;66.90
18794;DHT22;29610;49.022;12.114;2024-02-21T14:15:07;14.50;66.80
18794;DHT22;29610;49.022;12.114;2024-02-21T14:17:36;14.50;65.80
18794;DHT22;29610;49.022;12.114;2024-02-21T14:20:08;14.40;66.90
18794;DHT22;29610;49.022;12.114;2024-02-21T14:22:42;14.40;67.30
18794;DHT22;29610;49.022;12.114;2024-02-21T14:25:10;14.20;66.70
18794;DHT22;29610;49.022;12.114;2024-02-21T14:27:39;14.20;67.30
18794;DHT22;29610;49.022;12.114;2024-02-21T14:30:08;14.20;67.30
18794;DHT22;29610;49.022;12.114;2024-02-21T14:32:38;14.20;67.80
18794;DHT22;29610;49.022;12.114;2024-02-21T14:35:12;14.30;68.70
18794;DHT22;29610;49.022;12.114;2024-02-21T14:37:42;14.30;68.90
18794;DHT22;29610;49.022;12.114;2024-02-21T14:40:12;14.30;68.60
18794;DHT22;29610;49.022;12.114;2024-02-21T14:42:41;14.30;70.70
18794;DHT22;29610;49.022;12.114;2024-02-21T14:45:09;14.40;69.10
18794;DHT22;29610;49.022;12.114;2024-02-21T14:47:38;14.40;70.00
18794;DHT22;29610;49.022;12.114;2024-02-21T14:50:06;14.30;69.50
18794;DHT22;29610;49.022;12.114;2024-02-21T14:52:36;14.10;69.90
18794;DHT22;29610;49.022;12.114;2024-02-21T14:55:06;13.90;68.70
18794;DHT22;29610;49.022;12.114;2024-02-21T14:57:35;13.90;70.60
18794;DHT22;29610;49.022;12.114;2024-02-21T15:00:07;13.80;71.20
18794;DHT22;29610;49.022;12.114;2024-02-21T15:02:38;13.70;70.50
18794;DHT22;29610;49.022;12.114;2024-02-21T15:05:07;12.50;69.60
18794;DHT22;29610;49.022;12.114;2024-02-21T15:07:38;13.40;71.20
18794;DHT22;29610;49.022;12.114;2024-02-21T15:10:06;13.20;70.60
18794;DHT22;29610;49.022;12.114;2024-02-21T15:12:35;13.10;71.50
18794;DHT22;29610;49.022;12.114;2024-02-21T15:15:03;12.90;72.30
18794;DHT22;29610;49.022;12.114;2024-02-21T15:17:32;12.70;72.80
18794;DHT22;29610;49.022;12.114;2024-02-21T15:20:00;12.50;72.30
18794;DHT22;29610;49.022;12.114;2024-02-21T15:22:29;12.40;72.90
18794;DHT22;29610;49.022;12.114;2024-02-21T15:24:59;12.30;72.20
18794;DHT22;29610;49.022;12.114;2024-02-21T15:27:27;12.10;72.20
18794;DHT22;29610;49.022;12.114;2024-02-21T15:29:56;11.90;71.90
18794;DHT22;29610;49.022;12.114;2024-02-21T15:32:24;11.80;73.20
18794;DHT22;29610;49.022;12.114;2024-02-21T15:34:54;11.60;73.10
18794;DHT22;29610;49.022;12.114;2024-02-21T15:37:22;11.50;73.60